sensor_id;sensor_type;location;lat;lon;timestamp;pressure;altitude;pressure_sealevel;temperature;humidity
78843;BME280;70542;53.774;-0.352;2023-08-01T00:00:46;99680;;;17;52
78843;BME280;70542;53.774;-0.352;2023-08-01T00:06:27;99680;;;17;52
78843;BME280;70542;53.774;-0.352;2023-08-01T00:12:07;99680;;;18;51
78843;BME280;70542;53.774;-0.352;2023-08-01T00:17:46;99690;;;17;54
78843;BME280;70542;53.774;-0.352;2023-08-01T00:23:25;99690;;;17;52
78843;BME280;70542;53.774;-0.352;2023-08-01T00:29:04;99680;;;16;56
78843;BME280;70542;53.774;-0.352;2023-08-01T00:34:42;99680;;;17;52
78843;BME280;70542;53.774;-0.352;2023-08-01T00:40:21;99680;;;18;51
78843;BME280;70542;53.774;-0.352;2023-08-01T00:46:01;99680;;;17;53
78843;BME280;70542;53.774;-0.352;2023-08-01T00:51:41;99680;;;17;53
78843;BME280;70542;53.774;-0.352;2023-08-01T00:57:21;99680;;;17;53
78843;BME280;70542;53.774;-0.352;2023-08-01T01:02:59;99680;;;18;51
78843;BME280;70542;53.774;-0.352;2023-08-01T01:08:40;99680;;;16;55
78843;BME280;70542;53.774;-0.352;2023-08-01T01:14:18;99670;;;15;57
78843;BME280;70542;53.774;-0.352;2023-08-01T01:19:57;99680;;;16;56
78843;BME280;70542;53.774;-0.352;2023-08-01T01:25:36;99680;;;15;58
78843;BME280;70542;53.774;-0.352;2023-08-01T01:31:16;99670;;;16;57
78843;BME280;70542;53.774;-0.352;2023-08-01T01:36:55;99680;;;16;56
78843;BME280;70542;53.774;-0.352;2023-08-01T01:42:34;99670;;;16;55
78843;BME280;70542;53.774;-0.352;2023-08-01T01:48:13;99670;;;16;56
78843;BME280;70542;53.774;-0.352;2023-08-01T01:53:51;99680;;;17;54
78843;BME280;70542;53.774;-0.352;2023-08-01T01:59:30;99680;;;16;55
78843;BME280;70542;53.774;-0.352;2023-08-01T02:05:09;99690;;;16;57
78843;BME280;70542;53.774;-0.352;2023-08-01T02:10:58;99690;;;15;59
78843;BME280;70542;53.774;-0.352;2023-08-01T02:16:36;99680;;;15;60
78843;BME280;70542;53.774;-0.352;2023-08-01T02:22:15;99680;;;15;59
78843;BME280;70542;53.774;-0.352;2023-08-01T02:27:58;99680;;;15;58
78843;BME280;70542;53.774;-0.352;2023-08-01T02:33:37;99680;;;15;57
78843;BME280;70542;53.774;-0.352;2023-08-01T02:39:16;99660;;;16;53
78843;BME280;70542;53.774;-0.352;2023-08-01T02:44:54;99660;;;16;54
78843;BME280;70542;53.774;-0.352;2023-08-01T02:50:33;99660;;;15;56
78843;BME280;70542;53.774;-0.352;2023-08-01T02:56:12;99660;;;15;56
78843;BME280;70542;53.774;-0.352;2023-08-01T03:01:50;99670;;;15;56
78843;BME280;70542;53.774;-0.352;2023-08-01T03:07:29;99670;;;16;56
78843;BME280;70542;53.774;-0.352;2023-08-01T03:13:07;99670;;;15;57
78843;BME280;70542;53.774;-0.352;2023-08-01T03:18:46;99680;;;16;55
78843;BME280;70542;53.774;-0.352;2023-08-01T03:24:25;99680;;;14;58
78843;BME280;70542;53.774;-0.352;2023-08-01T03:30:04;99680;;;14;59
78843;BME280;70542;53.774;-0.352;2023-08-01T03:35:43;99680;;;15;57
78843;BME280;70542;53.774;-0.352;2023-08-01T03:41:21;99680;;;15;56
78843;BME280;70542;53.774;-0.352;2023-08-01T03:47:00;99690;;;14;60
78843;BME280;70542;53.774;-0.352;2023-08-01T03:52:39;99680;;;15;56
78843;BME280;70542;53.774;-0.352;2023-08-01T03:58:18;99680;;;16;55
78843;BME280;70542;53.774;-0.352;2023-08-01T04:03:56;99680;;;16;52
78843;BME280;70542;53.774;-0.352;2023-08-01T04:09:35;99680;;;16;53
78843;BME280;70542;53.774;-0.352;2023-08-01T04:15:13;99690;;;14;58
78843;BME280;70542;53.774;-0.352;2023-08-01T04:20:52;99680;;;16;55
78843;BME280;70542;53.774;-0.352;2023-08-01T04:26:31;99680;;;16;56
78843;BME280;70542;53.774;-0.352;2023-08-01T04:32:09;99690;;;14;61
78843;BME280;70542;53.774;-0.352;2023-08-01T04:37:53;99680;;;14;63
78843;BME280;70542;53.774;-0.352;2023-08-01T04:43:32;99690;;;14;61
78843;BME280;70542;53.774;-0.352;2023-08-01T04:49:10;99690;;;13;65
78843;BME280;70542;53.774;-0.352;2023-08-01T04:54:54;99690;;;13;63
78843;BME280;70542;53.774;-0.352;2023-08-01T05:00:33;99700;;;14;61
78843;BME280;70542;53.774;-0.352;2023-08-01T05:06:11;99700;;;13;64
78843;BME280;70542;53.774;-0.352;2023-08-01T05:11:50;99700;;;15;61
78843;BME280;70542;53.774;-0.352;2023-08-01T05:17:28;99700;;;13;66
78843;BME280;70542;53.774;-0.352;2023-08-01T05:23:07;99710;;;13;65
78843;BME280;70542;53.774;-0.352;2023-08-01T05:28:45;99710;;;14;64
78843;BME280;70542;53.774;-0.352;2023-08-01T05:34:24;99720;;;14;62
78843;BME280;70542;53.774;-0.352;2023-08-01T05:40:03;99720;;;15;60
78843;BME280;70542;53.774;-0.352;2023-08-01T05:45:41;99730;;;14;61
78843;BME280;70542;53.774;-0.352;2023-08-01T05:51:20;99740;;;14;61
78843;BME280;70542;53.774;-0.352;2023-08-01T05:56:59;99740;;;15;59
78843;BME280;70542;53.774;-0.352;2023-08-01T06:02:37;99740;;;15;60
78843;BME280;70542;53.774;-0.352;2023-08-01T06:08:21;99750;;;14;62
78843;BME280;70542;53.774;-0.352;2023-08-01T06:14:00;99750;;;15;60
78843;BME280;70542;53.774;-0.352;2023-08-01T06:19:38;99750;;;16;57
78843;BME280;70542;53.774;-0.352;2023-08-01T06:25:17;99750;;;15;57
78843;BME280;70542;53.774;-0.352;2023-08-01T06:30:56;99760;;;14;62
78843;BME280;70542;53.774;-0.352;2023-08-01T06:36:34;99760;;;15;60
78843;BME280;70542;53.774;-0.352;2023-08-01T06:42:13;99760;;;15;61
78843;BME280;70542;53.774;-0.352;2023-08-01T06:47:52;99770;;;14;64
78843;BME280;70542;53.774;-0.352;2023-08-01T06:53:30;99780;;;14;62
78843;BME280;70542;53.774;-0.352;2023-08-01T06:59:09;99790;;;14;63
78843;BME280;70542;53.774;-0.352;2023-08-01T07:04:47;99790;;;14;62
78843;BME280;70542;53.774;-0.352;2023-08-01T07:10:35;99790;;;15;60
78843;BME280;70542;53.774;-0.352;2023-08-01T07:16:15;99800;;;14;60
78843;BME280;70542;53.774;-0.352;2023-08-01T07:21:55;99810;;;15;61
78843;BME280;70542;53.774;-0.352;2023-08-01T07:27:33;99810;;;15;61
78843;BME280;70542;53.774;-0.352;2023-08-01T07:33:12;99810;;;14;61
78843;BME280;70542;53.774;-0.352;2023-08-01T07:38:50;99820;;;15;59
78843;BME280;70542;53.774;-0.352;2023-08-01T07:44:30;99820;;;15;57
78843;BME280;70542;53.774;-0.352;2023-08-01T07:50:10;99820;;;15;57
78843;BME280;70542;53.774;-0.352;2023-08-01T07:55:49;99820;;;15;59
78843;BME280;70542;53.774;-0.352;2023-08-01T08:01:28;99820;;;16;57
78843;BME280;70542;53.774;-0.352;2023-08-01T08:07:11;99820;;;15;59
78843;BME280;70542;53.774;-0.352;2023-08-01T08:12:49;99830;;;16;58
78843;BME280;70542;53.774;-0.352;2023-08-01T08:18:28;99830;;;15;58
78843;BME280;70542;53.774;-0.352;2023-08-01T08:24:07;99840;;;16;57
78843;BME280;70542;53.774;-0.352;2023-08-01T08:29:45;99840;;;15;59
78843;BME280;70542;53.774;-0.352;2023-08-01T08:35:24;99840;;;15;59
78843;BME280;70542;53.774;-0.352;2023-08-01T08:41:08;99840;;;15;60
78843;BME280;70542;53.774;-0.352;2023-08-01T08:46:52;99850;;;16;57
78843;BME280;70542;53.774;-0.352;2023-08-01T08:52:36;99850;;;16;57
78843;BME280;70542;53.774;-0.352;2023-08-01T08:58:16;99860;;;16;56
78843;BME280;70542;53.774;-0.352;2023-08-01T09:03:55;99860;;;16;56
78843;BME280;70542;53.774;-0.352;2023-08-01T09:09:44;99870;;;16;55
78843;BME280;70542;53.774;-0.352;2023-08-01T09:15:24;99860;;;16;55
78843;BME280;70542;53.774;-0.352;2023-08-01T09:21:04;99870;;;16;55
78843;BME280;70542;53.774;-0.352;2023-08-01T09:26:43;99870;;;17;55
78843;BME280;70542;53.774;-0.352;2023-08-01T09:38:34;99880;;;16;55
78843;BME280;70542;53.774;-0.352;2023-08-01T09:44:16;99890;;;15;57
78843;BME280;70542;53.774;-0.352;2023-08-01T09:49:55;99900;;;16;54
78843;BME280;70542;53.774;-0.352;2023-08-01T09:55:34;99900;;;16;54
78843;BME280;70542;53.774;-0.352;2023-08-01T10:01:14;99900;;;16;56
78843;BME280;70542;53.774;-0.352;2023-08-01T10:06:57;99900;;;16;56
78843;BME280;70542;53.774;-0.352;2023-08-01T10:12:37;99910;;;16;55
78843;BME280;70542;53.774;-0.352;2023-08-01T10:18:16;99910;;;15;58
78843;BME280;70542;53.774;-0.352;2023-08-01T10:23:57;99910;;;16;57
78843;BME280;70542;53.774;-0.352;2023-08-01T10:29:36;99920;;;16;54
78843;BME280;70542;53.774;-0.352;2023-08-01T10:35:15;99920;;;16;56
78843;BME280;70542;53.774;-0.352;2023-08-01T10:40:53;99910;;;18;52
78843;BME280;70542;53.774;-0.352;2023-08-01T10:46:46;99920;;;19;47
78843;BME280;70542;53.774;-0.352;2023-08-01T10:52:26;99930;;;17;53
78843;BME280;70542;53.774;-0.352;2023-08-01T10:58:05;99930;;;16;55
78843;BME280;70542;53.774;-0.352;2023-08-01T11:03:44;99930;;;17;54
78843;BME280;70542;53.774;-0.352;2023-08-01T11:09:25;99920;;;18;51
78843;BME280;70542;53.774;-0.352;2023-08-01T11:15:05;99930;;;19;49
78843;BME280;70542;53.774;-0.352;2023-08-01T11:20:49;99940;;;18;52
78843;BME280;70542;53.774;-0.352;2023-08-01T11:26:27;99940;;;17;53
78843;BME280;70542;53.774;-0.352;2023-08-01T11:32:06;99950;;;17;54
78843;BME280;70542;53.774;-0.352;2023-08-01T11:37:46;99950;;;16;55
78843;BME280;70542;53.774;-0.352;2023-08-01T11:43:25;99950;;;18;53
78843;BME280;70542;53.774;-0.352;2023-08-01T11:49:14;99950;;;18;50
78843;BME280;70542;53.774;-0.352;2023-08-01T11:54:53;99950;;;19;49
78843;BME280;70542;53.774;-0.352;2023-08-01T12:00:33;99950;;;18;51
78843;BME280;70542;53.774;-0.352;2023-08-01T12:06:12;99940;;;19;49
78843;BME280;70542;53.774;-0.352;2023-08-01T12:11:59;99940;;;19;49
78843;BME280;70542;53.774;-0.352;2023-08-01T12:17:38;99940;;;18;50
78843;BME280;70542;53.774;-0.352;2023-08-01T12:23:16;99950;;;17;52
78843;BME280;70542;53.774;-0.352;2023-08-01T12:28:55;99950;;;17;52
78843;BME280;70542;53.774;-0.352;2023-08-01T12:34:34;99950;;;18;49
78843;BME280;70542;53.774;-0.352;2023-08-01T12:40:14;99950;;;18;49
78843;BME280;70542;53.774;-0.352;2023-08-01T12:45:53;99960;;;18;48
78843;BME280;70542;53.774;-0.352;2023-08-01T12:51:32;99960;;;18;48
78843;BME280;70542;53.774;-0.352;2023-08-01T12:57:16;99960;;;18;51
78843;BME280;70542;53.774;-0.352;2023-08-01T13:02:55;99960;;;18;49
78843;BME280;70542;53.774;-0.352;2023-08-01T13:08:34;99970;;;19;49
78843;BME280;70542;53.774;-0.352;2023-08-01T13:14:13;99980;;;18;51
78843;BME280;70542;53.774;-0.352;2023-08-01T13:19:52;99990;;;17;51
78843;BME280;70542;53.774;-0.352;2023-08-01T13:25:31;99990;;;18;51
78843;BME280;70542;53.774;-0.352;2023-08-01T13:31:14;99990;;;18;51
78843;BME280;70542;53.774;-0.352;2023-08-01T13:36:53;100000;;;17;54
78843;BME280;70542;53.774;-0.352;2023-08-01T13:42:32;100010;;;17;57
78843;BME280;70542;53.774;-0.352;2023-08-01T13:48:11;100000;;;17;54
78843;BME280;70542;53.774;-0.352;2023-08-01T13:53:49;100000;;;17;53
78843;BME280;70542;53.774;-0.352;2023-08-01T13:59:28;99990;;;18;52
78843;BME280;70542;53.774;-0.352;2023-08-01T14:05:07;99990;;;19;48
78843;BME280;70542;53.774;-0.352;2023-08-01T14:10:46;99980;;;19;49
78843;BME280;70542;53.774;-0.352;2023-08-01T14:16:27;99990;;;18;51
78843;BME280;70542;53.774;-0.352;2023-08-01T14:22:06;99980;;;18;49
78843;BME280;70542;53.774;-0.352;2023-08-01T14:27:44;99990;;;17;53
78843;BME280;70542;53.774;-0.352;2023-08-01T14:33:23;99980;;;19;49
78843;BME280;70542;53.774;-0.352;2023-08-01T14:39:01;99980;;;19;46
78843;BME280;70542;53.774;-0.352;2023-08-01T14:44:40;99980;;;20;45
78843;BME280;70542;53.774;-0.352;2023-08-01T14:50:19;99980;;;18;48
78843;BME280;70542;53.774;-0.352;2023-08-01T14:55:58;99980;;;18;47
78843;BME280;70542;53.774;-0.352;2023-08-01T15:01:37;99970;;;19;45
78843;BME280;70542;53.774;-0.352;2023-08-01T15:07:19;99980;;;21;41
78843;BME280;70542;53.774;-0.352;2023-08-01T15:12:58;99980;;;18;47
78843;BME280;70542;53.774;-0.352;2023-08-01T15:18:36;99980;;;20;45
78843;BME280;70542;53.774;-0.352;2023-08-01T15:24:17;99980;;;19;44
78843;BME280;70542;53.774;-0.352;2023-08-01T15:30:18;99970;;;21;41
78843;BME280;70542;53.774;-0.352;2023-08-01T15:35:59;99980;;;19;44
78843;BME280;70542;53.774;-0.352;2023-08-01T15:41:38;99970;;;20;44
78843;BME280;70542;53.774;-0.352;2023-08-01T15:47:17;99980;;;19;44
78843;BME280;70542;53.774;-0.352;2023-08-01T15:52:56;99970;;;20;43
78843;BME280;70542;53.774;-0.352;2023-08-01T15:58:34;99980;;;20;43
78843;BME280;70542;53.774;-0.352;2023-08-01T16:04:13;99980;;;18;45
78843;BME280;70542;53.774;-0.352;2023-08-01T16:09:57;99970;;;18;48
78843;BME280;70542;53.774;-0.352;2023-08-01T16:15:38;99970;;;18;48
78843;BME280;70542;53.774;-0.352;2023-08-01T16:21:17;99970;;;18;47
78843;BME280;70542;53.774;-0.352;2023-08-01T16:26:56;99970;;;18;46
78843;BME280;70542;53.774;-0.352;2023-08-01T16:32:35;99960;;;19;46
78843;BME280;70542;53.774;-0.352;2023-08-01T16:38:14;99950;;;19;46
78843;BME280;70542;53.774;-0.352;2023-08-01T16:43:53;99950;;;18;47
78843;BME280;70542;53.774;-0.352;2023-08-01T16:49:31;99940;;;17;47
78843;BME280;70542;53.774;-0.352;2023-08-01T16:55:10;99940;;;18;46
78843;BME280;70542;53.774;-0.352;2023-08-01T17:00:50;99940;;;18;46
78843;BME280;70542;53.774;-0.352;2023-08-01T17:06:38;99950;;;18;46
78843;BME280;70542;53.774;-0.352;2023-08-01T17:12:28;99960;;;19;45
78843;BME280;70542;53.774;-0.352;2023-08-01T17:18:25;99960;;;18;46
78843;BME280;70542;53.774;-0.352;2023-08-01T17:24:12;99940;;;20;44
78843;BME280;70542;53.774;-0.352;2023-08-01T17:29:54;99950;;;19;44
78843;BME280;70542;53.774;-0.352;2023-08-01T17:35:34;99950;;;19;45
78843;BME280;70542;53.774;-0.352;2023-08-01T17:41:17;99950;;;18;45
78843;BME280;70542;53.774;-0.352;2023-08-01T17:46:56;99940;;;20;42
78843;BME280;70542;53.774;-0.352;2023-08-01T17:52:38;99920;;;21;40
78843;BME280;70542;53.774;-0.352;2023-08-01T17:58:17;99920;;;21;38
78843;BME280;70542;53.774;-0.352;2023-08-01T18:03:56;99920;;;21;37
78843;BME280;70542;53.774;-0.352;2023-08-01T18:09:37;99910;;;22;37
78843;BME280;70542;53.774;-0.352;2023-08-01T18:15:17;99900;;;23;35
78843;BME280;70542;53.774;-0.352;2023-08-01T18:20:58;99900;;;23;35
78843;BME280;70542;53.774;-0.352;2023-08-01T18:26:36;99890;;;22;37
78843;BME280;70542;53.774;-0.352;2023-08-01T18:32:15;99870;;;23;36
78843;BME280;70542;53.774;-0.352;2023-08-01T18:37:54;99870;;;22;37
78843;BME280;70542;53.774;-0.352;2023-08-01T18:43:33;99860;;;22;37
78843;BME280;70542;53.774;-0.352;2023-08-01T18:49:22;99860;;;23;35
78843;BME280;70542;53.774;-0.352;2023-08-01T18:55:10;99870;;;21;39
78843;BME280;70542;53.774;-0.352;2023-08-01T19:00:49;99870;;;24;34
78843;BME280;70542;53.774;-0.352;2023-08-01T19:06:27;99880;;;22;35
78843;BME280;70542;53.774;-0.352;2023-08-01T19:12:07;99870;;;23;34
78843;BME280;70542;53.774;-0.352;2023-08-01T19:17:53;99880;;;23;35
78843;BME280;70542;53.774;-0.352;2023-08-01T19:23:32;99890;;;24;33
78843;BME280;70542;53.774;-0.352;2023-08-01T19:29:10;99890;;;24;34
78843;BME280;70542;53.774;-0.352;2023-08-01T19:34:50;99880;;;24;35
78843;BME280;70542;53.774;-0.352;2023-08-01T19:40:29;99870;;;24;34
78843;BME280;70542;53.774;-0.352;2023-08-01T19:46:12;99870;;;24;34
78843;BME280;70542;53.774;-0.352;2023-08-01T19:51:51;99860;;;24;34
78843;BME280;70542;53.774;-0.352;2023-08-01T19:57:31;99850;;;24;34
78843;BME280;70542;53.774;-0.352;2023-08-01T20:03:10;99850;;;23;35
78843;BME280;70542;53.774;-0.352;2023-08-01T20:08:50;99810;;;22;37
78843;BME280;70542;53.774;-0.352;2023-08-01T20:14:29;99820;;;22;38
78843;BME280;70542;53.774;-0.352;2023-08-01T20:20:19;99820;;;22;38
78843;BME280;70542;53.774;-0.352;2023-08-01T20:25:57;99820;;;22;38
78843;BME280;70542;53.774;-0.352;2023-08-01T20:31:40;99830;;;22;37
78843;BME280;70542;53.774;-0.352;2023-08-01T20:37:19;99840;;;22;36
78843;BME280;70542;53.774;-0.352;2023-08-01T20:42:58;99820;;;22;37
78843;BME280;70542;53.774;-0.352;2023-08-01T20:48:38;99830;;;23;36
78843;BME280;70542;53.774;-0.352;2023-08-01T20:54:16;99830;;;23;36
78843;BME280;70542;53.774;-0.352;2023-08-01T20:59:55;99840;;;23;36
78843;BME280;70542;53.774;-0.352;2023-08-01T21:05:35;99820;;;23;37
78843;BME280;70542;53.774;-0.352;2023-08-01T21:11:15;99830;;;23;37
78843;BME280;70542;53.774;-0.352;2023-08-01T21:16:54;99810;;;23;37
78843;BME280;70542;53.774;-0.352;2023-08-01T21:22:32;99800;;;23;38
78843;BME280;70542;53.774;-0.352;2023-08-01T21:28:11;99790;;;22;38
78843;BME280;70542;53.774;-0.352;2023-08-01T21:33:51;99790;;;22;38
78843;BME280;70542;53.774;-0.352;2023-08-01T21:39:32;99780;;;22;39
78843;BME280;70542;53.774;-0.352;2023-08-01T21:45:11;99770;;;23;38
78843;BME280;70542;53.774;-0.352;2023-08-01T21:50:50;99760;;;22;38
78843;BME280;70542;53.774;-0.352;2023-08-01T21:56:29;99760;;;22;37
78843;BME280;70542;53.774;-0.352;2023-08-01T22:02:07;99750;;;22;37
78843;BME280;70542;53.774;-0.352;2023-08-01T22:07:46;99740;;;22;37
78843;BME280;70542;53.774;-0.352;2023-08-01T22:13:25;99710;;;22;38
78843;BME280;70542;53.774;-0.352;2023-08-01T22:19:04;99710;;;22;38
78843;BME280;70542;53.774;-0.352;2023-08-01T22:24:48;99690;;;21;39
78843;BME280;70542;53.774;-0.352;2023-08-01T22:30:26;99680;;;21;39
78843;BME280;70542;53.774;-0.352;2023-08-01T22:36:09;99660;;;21;39
78843;BME280;70542;53.774;-0.352;2023-08-01T22:41:48;99660;;;21;38
78843;BME280;70542;53.774;-0.352;2023-08-01T22:47:27;99650;;;22;37
78843;BME280;70542;53.774;-0.352;2023-08-01T22:53:06;99650;;;22;38
78843;BME280;70542;53.774;-0.352;2023-08-01T22:58:45;99650;;;22;38
78843;BME280;70542;53.774;-0.352;2023-08-01T23:04:24;99650;;;22;38
78843;BME280;70542;53.774;-0.352;2023-08-01T23:10:04;99640;;;21;39
78843;BME280;70542;53.774;-0.352;2023-08-01T23:15:45;99630;;;21;39
78843;BME280;70542;53.774;-0.352;2023-08-01T23:21:24;99620;;;21;40
78843;BME280;70542;53.774;-0.352;2023-08-01T23:27:03;99610;;;21;40
78843;BME280;70542;53.774;-0.352;2023-08-01T23:32:42;99590;;;21;40
78843;BME280;70542;53.774;-0.352;2023-08-01T23:38:20;99580;;;21;39
78843;BME280;70542;53.774;-0.352;2023-08-01T23:43:59;99580;;;21;39
78843;BME280;70542;53.774;-0.352;2023-08-01T23:49:37;99570;;;21;40
78843;BME280;70542;53.774;-0.352;2023-08-01T23:55:16;99560;;;21;40
